sensor_id;sensor_type;location;lat;lon;timestamp;pressure;altitude;pressure_sealevel;temperature;humidity
5574;BME280;2563;52.242;7.956;2023-11-21T00:02:04;101064.16;;;6.89;100.00
5574;BME280;2563;52.242;7.956;2023-11-21T00:04:30;101079.53;;;6.92;100.00
5574;BME280;2563;52.242;7.956;2023-11-21T00:06:55;101072.69;;;6.96;100.00
5574;BME280;2563;52.242;7.956;2023-11-21T00:09:20;101075.25;;;6.99;100.00
5574;BME280;2563;52.242;7.956;2023-11-21T00:11:46;101084.63;;;7.03;100.00
5574;BME280;2563;52.242;7.956;2023-11-21T00:14:12;101081.22;;;7.06;100.00
5574;BME280;2563;52.242;7.956;2023-11-21T00:16:37;101082.06;;;7.11;100.00
5574;BME280;2563;52.242;7.956;2023-11-21T00:19:03;101089.75;;;7.12;100.00
5574;BME280;2563;52.242;7.956;2023-11-21T00:21:28;101096.56;;;7.13;100.00
5574;BME280;2563;52.242;7.956;2023-11-21T00:23:53;101096.56;;;7.18;100.00
5574;BME280;2563;52.242;7.956;2023-11-21T00:26:19;101102.53;;;7.20;100.00
5574;BME280;2563;52.242;7.956;2023-11-21T00:28:44;101101.69;;;7.21;100.00
5574;BME280;2563;52.242;7.956;2023-11-21T00:31:10;101107.66;;;7.26;100.00
5574;BME280;2563;52.242;7.956;2023-11-21T00:33:35;101114.47;;;7.29;100.00
5574;BME280;2563;52.242;7.956;2023-11-21T00:36:01;101111.03;;;7.39;100.00
5574;BME280;2563;52.242;7.956;2023-11-21T00:38:26;101114.44;;;7.39;100.00
5574;BME280;2563;52.242;7.956;2023-11-21T00:40:52;101111.91;;;7.42;100.00
5574;BME280;2563;52.242;7.956;2023-11-21T00:43:22;101121.28;;;7.43;100.00
5574;BME280;2563;52.242;7.956;2023-11-21T00:45:47;101126.38;;;7.43;100.00
5574;BME280;2563;52.242;7.956;2023-11-21T00:48:14;101122.97;;;7.44;100.00
5574;BME280;2563;52.242;7.956;2023-11-21T00:50:40;101123.84;;;7.45;100.00
5574;BME280;2563;52.242;7.956;2023-11-21T00:53:05;101131.50;;;7.46;100.00
5574;BME280;2563;52.242;7.956;2023-11-21T00:55:32;101134.06;;;7.48;100.00
5574;BME280;2563;52.242;7.956;2023-11-21T00:57:58;101131.50;;;7.48;100.00
5574;BME280;2563;52.242;7.956;2023-11-21T01:00:24;101133.22;;;7.48;100.00
5574;BME280;2563;52.242;7.956;2023-11-21T01:02:49;101139.19;;;7.51;100.00
5574;BME280;2563;52.242;7.956;2023-11-21T01:05:14;101141.75;;;7.53;100.00
5574;BME280;2563;52.242;7.956;2023-11-21T01:07:40;101144.31;;;7.54;100.00
5574;BME280;2563;52.242;7.956;2023-11-21T01:10:05;101152.84;;;7.53;100.00
5574;BME280;2563;52.242;7.956;2023-11-21T01:12:36;101153.69;;;7.57;100.00
5574;BME280;2563;52.242;7.956;2023-11-21T01:15:03;101155.41;;;7.59;100.00
5574;BME280;2563;52.242;7.956;2023-11-21T01:17:29;101155.41;;;7.59;100.00
5574;BME280;2563;52.242;7.956;2023-11-21T01:19:54;101158.81;;;7.57;100.00
5574;BME280;2563;52.242;7.956;2023-11-21T01:22:21;101170.75;;;7.61;100.00
5574;BME280;2563;52.242;7.956;2023-11-21T01:24:51;101179.31;;;7.64;100.00
5574;BME280;2563;52.242;7.956;2023-11-21T01:27:16;101177.59;;;7.65;100.00
5574;BME280;2563;52.242;7.956;2023-11-21T01:29:42;101179.28;;;7.63;100.00
5574;BME280;2563;52.242;7.956;2023-11-21T01:32:07;101180.16;;;7.62;100.00
5574;BME280;2563;52.242;7.956;2023-11-21T01:34:33;101187.00;;;7.61;100.00
5574;BME280;2563;52.242;7.956;2023-11-21T01:36:58;101183.56;;;7.64;100.00
5574;BME280;2563;52.242;7.956;2023-11-21T01:39:25;101182.69;;;7.63;100.00
5574;BME280;2563;52.242;7.956;2023-11-21T01:41:51;101196.38;;;7.69;100.00
5574;BME280;2563;52.242;7.956;2023-11-21T01:44:17;101197.22;;;7.69;100.00
5574;BME280;2563;52.242;7.956;2023-11-21T01:46:44;101191.25;;;7.67;100.00
5574;BME280;2563;52.242;7.956;2023-11-21T01:49:10;101201.50;;;7.64;100.00
5574;BME280;2563;52.242;7.956;2023-11-21T01:51:39;101196.38;;;7.64;100.00
5574;BME280;2563;52.242;7.956;2023-11-21T01:54:04;101198.94;;;7.67;100.00
5574;BME280;2563;52.242;7.956;2023-11-21T01:56:31;101200.66;;;7.66;100.00
5574;BME280;2563;52.242;7.956;2023-11-21T01:58:57;101204.91;;;7.66;100.00
5574;BME280;2563;52.242;7.956;2023-11-21T02:01:23;101211.75;;;7.65;100.00
5574;BME280;2563;52.242;7.956;2023-11-21T02:03:48;101221.16;;;7.66;100.00
5574;BME280;2563;52.242;7.956;2023-11-21T02:06:13;101221.13;;;7.65;100.00
5574;BME280;2563;52.242;7.956;2023-11-21T02:08:39;101222.00;;;7.64;100.00
5574;BME280;2563;52.242;7.956;2023-11-21T02:11:05;101227.13;;;7.62;100.00
5574;BME280;2563;52.242;7.956;2023-11-21T02:13:31;101230.53;;;7.63;100.00
5574;BME280;2563;52.242;7.956;2023-11-21T02:15:57;101239.94;;;7.62;100.00
5574;BME280;2563;52.242;7.956;2023-11-21T02:18:23;101238.25;;;7.61;100.00
5574;BME280;2563;52.242;7.956;2023-11-21T02:20:48;101248.50;;;7.61;100.00
5574;BME280;2563;52.242;7.956;2023-11-21T02:23:14;101246.78;;;7.57;100.00
5574;BME280;2563;52.242;7.956;2023-11-21T02:25:39;101255.28;;;7.56;100.00
5574;BME280;2563;52.242;7.956;2023-11-21T02:28:07;101245.94;;;7.57;100.00
5574;BME280;2563;52.242;7.956;2023-11-21T02:30:33;101256.16;;;7.58;100.00
5574;BME280;2563;52.242;7.956;2023-11-21T02:32:59;101260.44;;;7.55;100.00
5574;BME280;2563;52.242;7.956;2023-11-21T02:35:24;101251.03;;;7.60;100.00
5574;BME280;2563;52.242;7.956;2023-11-21T02:37:51;101257.00;;;7.71;100.00
5574;BME280;2563;52.242;7.956;2023-11-21T02:40:17;101264.69;;;7.68;100.00
5574;BME280;2563;52.242;7.956;2023-11-21T02:42:43;101271.53;;;7.64;100.00
5574;BME280;2563;52.242;7.956;2023-11-21T02:45:10;101270.66;;;7.56;100.00
5574;BME280;2563;52.242;7.956;2023-11-21T02:47:37;101276.66;;;7.54;100.00
5574;BME280;2563;52.242;7.956;2023-11-21T02:50:03;101273.25;;;7.55;100.00
5574;BME280;2563;52.242;7.956;2023-11-21T02:52:29;101273.25;;;7.55;100.00
5574;BME280;2563;52.242;7.956;2023-11-21T02:54:54;101276.66;;;7.57;100.00
5574;BME280;2563;52.242;7.956;2023-11-21T02:57:20;101277.50;;;7.53;100.00
5574;BME280;2563;52.242;7.956;2023-11-21T02:59:45;101265.56;;;7.53;100.00
5574;BME280;2563;52.242;7.956;2023-11-21T03:02:10;101271.53;;;7.52;100.00
5574;BME280;2563;52.242;7.956;2023-11-21T03:04:36;101273.22;;;7.52;100.00
5574;BME280;2563;52.242;7.956;2023-11-21T03:07:01;101269.81;;;7.65;100.00
5574;BME280;2563;52.242;7.956;2023-11-21T03:09:26;101275.81;;;7.59;100.00
5574;BME280;2563;52.242;7.956;2023-11-21T03:11:53;101278.38;;;7.58;100.00
5574;BME280;2563;52.242;7.956;2023-11-21T03:14:19;101282.63;;;7.57;100.00
5574;BME280;2563;52.242;7.956;2023-11-21T03:16:44;101285.19;;;7.57;100.00
5574;BME280;2563;52.242;7.956;2023-11-21T03:19:10;101287.75;;;7.57;100.00
5574;BME280;2563;52.242;7.956;2023-11-21T03:21:36;101289.47;;;7.57;100.00
5574;BME280;2563;52.242;7.956;2023-11-21T03:24:01;101298.88;;;7.59;100.00
5574;BME280;2563;52.242;7.956;2023-11-21T03:26:27;101296.31;;;7.59;100.00
5574;BME280;2563;52.242;7.956;2023-11-21T03:28:52;101301.44;;;7.59;100.00
5574;BME280;2563;52.242;7.956;2023-11-21T03:31:18;101307.41;;;7.60;100.00
5574;BME280;2563;52.242;7.956;2023-11-21T03:33:45;101313.38;;;7.57;100.00
5574;BME280;2563;52.242;7.956;2023-11-21T03:36:11;101314.22;;;7.58;100.00
5574;BME280;2563;52.242;7.956;2023-11-21T03:38:36;101313.38;;;7.54;100.00
5574;BME280;2563;52.242;7.956;2023-11-21T03:41:02;101312.53;;;7.51;100.00
5574;BME280;2563;52.242;7.956;2023-11-21T03:43:27;101321.91;;;7.49;100.00
5574;BME280;2563;52.242;7.956;2023-11-21T03:45:52;101319.34;;;7.45;100.00
5574;BME280;2563;52.242;7.956;2023-11-21T03:48:18;101327.88;;;7.44;100.00
5574;BME280;2563;52.242;7.956;2023-11-21T03:50:43;101329.59;;;7.42;100.00
5574;BME280;2563;52.242;7.956;2023-11-21T03:53:08;101340.69;;;7.41;100.00
5574;BME280;2563;52.242;7.956;2023-11-21T03:55:34;101357.78;;;7.45;100.00
5574;BME280;2563;52.242;7.956;2023-11-21T03:57:59;101352.66;;;7.45;100.00
5574;BME280;2563;52.242;7.956;2023-11-21T04:00:25;101358.59;;;7.44;100.00
5574;BME280;2563;52.242;7.956;2023-11-21T04:02:52;101362.88;;;7.44;100.00
5574;BME280;2563;52.242;7.956;2023-11-21T04:05:17;101365.44;;;7.45;100.00
5574;BME280;2563;52.242;7.956;2023-11-21T04:07:43;101366.31;;;7.48;100.00
5574;BME280;2563;52.242;7.956;2023-11-21T04:10:09;101369.72;;;7.45;100.00
5574;BME280;2563;52.242;7.956;2023-11-21T04:12:35;101369.72;;;7.45;100.00
5574;BME280;2563;52.242;7.956;2023-11-21T04:15:01;101370.56;;;7.49;100.00
5574;BME280;2563;52.242;7.956;2023-11-21T04:17:26;101382.53;;;7.48;100.00
5574;BME280;2563;52.242;7.956;2023-11-21T04:19:51;101378.28;;;7.47;100.00
5574;BME280;2563;52.242;7.956;2023-11-21T04:22:17;101375.69;;;7.49;100.00
5574;BME280;2563;52.242;7.956;2023-11-21T04:24:42;101379.97;;;7.48;100.00
5574;BME280;2563;52.242;7.956;2023-11-21T04:27:08;101382.53;;;7.50;100.00
5574;BME280;2563;52.242;7.956;2023-11-21T04:29:33;101377.44;;;7.50;100.00
5574;BME280;2563;52.242;7.956;2023-11-21T04:31:58;101377.41;;;7.51;100.00
5574;BME280;2563;52.242;7.956;2023-11-21T04:34:23;101378.25;;;7.52;100.00
5574;BME280;2563;52.242;7.956;2023-11-21T04:36:50;101385.97;;;7.50;100.00
5574;BME280;2563;52.242;7.956;2023-11-21T04:39:15;101390.22;;;7.50;100.00
5574;BME280;2563;52.242;7.956;2023-11-21T04:41:40;101391.09;;;7.50;100.00
5574;BME280;2563;52.242;7.956;2023-11-21T04:44:06;101394.50;;;7.48;100.00
5574;BME280;2563;52.242;7.956;2023-11-21T04:46:31;101394.50;;;7.51;100.00
5574;BME280;2563;52.242;7.956;2023-11-21T04:48:57;101396.19;;;7.52;100.00
5574;BME280;2563;52.242;7.956;2023-11-21T04:51:23;101399.63;;;7.51;100.00
5574;BME280;2563;52.242;7.956;2023-11-21T04:53:48;101392.78;;;7.50;100.00
5574;BME280;2563;52.242;7.956;2023-11-21T04:56:14;101396.19;;;7.49;100.00
5574;BME280;2563;52.242;7.956;2023-11-21T04:58:41;101400.47;;;7.51;100.00
5574;BME280;2563;52.242;7.956;2023-11-21T05:01:07;101403.00;;;7.46;100.00
5574;BME280;2563;52.242;7.956;2023-11-21T05:03:32;101410.72;;;7.51;100.00
5574;BME280;2563;52.242;7.956;2023-11-21T05:05:59;101415.84;;;7.51;100.00
5574;BME280;2563;52.242;7.956;2023-11-21T05:08:25;101411.56;;;7.49;100.00
5574;BME280;2563;52.242;7.956;2023-11-21T05:10:51;101415.84;;;7.48;100.00
5574;BME280;2563;52.242;7.956;2023-11-21T05:13:17;101416.69;;;7.47;100.00
5574;BME280;2563;52.242;7.956;2023-11-21T05:15:43;101429.50;;;7.45;100.00
5574;BME280;2563;52.242;7.956;2023-11-21T05:18:09;101423.53;;;7.45;100.00
5574;BME280;2563;52.242;7.956;2023-11-21T05:20:35;101420.06;;;7.44;100.00
5574;BME280;2563;52.242;7.956;2023-11-21T05:23:01;101432.88;;;7.41;100.00
5574;BME280;2563;52.242;7.956;2023-11-21T05:25:27;101426.91;;;7.39;100.00
5574;BME280;2563;52.242;7.956;2023-11-21T05:27:52;101434.59;;;7.38;100.00
5574;BME280;2563;52.242;7.956;2023-11-21T05:30:18;101429.44;;;7.35;100.00
5574;BME280;2563;52.242;7.956;2023-11-21T05:32:44;101430.28;;;7.32;100.00
5574;BME280;2563;52.242;7.956;2023-11-21T05:35:10;101442.25;;;7.33;100.00
5574;BME280;2563;52.242;7.956;2023-11-21T05:37:40;101447.38;;;7.36;100.00
5574;BME280;2563;52.242;7.956;2023-11-21T05:40:06;101447.41;;;7.42;100.00
5574;BME280;2563;52.242;7.956;2023-11-21T05:42:33;101456.81;;;7.43;100.00
5574;BME280;2563;52.242;7.956;2023-11-21T05:44:58;101464.47;;;7.40;100.00
5574;BME280;2563;52.242;7.956;2023-11-21T05:47:46;101457.66;;;7.42;100.00
5574;BME280;2563;52.242;7.956;2023-11-21T05:50:13;101469.59;;;7.40;100.00
5574;BME280;2563;52.242;7.956;2023-11-21T05:52:46;101471.31;;;7.43;100.00
5574;BME280;2563;52.242;7.956;2023-11-21T05:55:12;101490.09;;;7.40;100.00
5574;BME280;2563;52.242;7.956;2023-11-21T05:57:39;101480.69;;;7.41;100.00
5574;BME280;2563;52.242;7.956;2023-11-21T06:00:11;101490.09;;;7.40;100.00
5574;BME280;2563;52.242;7.956;2023-11-21T06:02:51;101489.22;;;7.37;100.00
5574;BME280;2563;52.242;7.956;2023-11-21T06:05:22;101511.41;;;7.36;100.00
5574;BME280;2563;52.242;7.956;2023-11-21T06:07:49;101514.84;;;7.41;100.00
5574;BME280;2563;52.242;7.956;2023-11-21T06:10:14;101516.56;;;7.42;100.00
5574;BME280;2563;52.242;7.956;2023-11-21T06:12:40;101515.72;;;7.40;100.00
5574;BME280;2563;52.242;7.956;2023-11-21T06:15:09;101521.69;;;7.41;100.00
5574;BME280;2563;52.242;7.956;2023-11-21T06:17:37;101530.25;;;7.43;100.00
5574;BME280;2563;52.242;7.956;2023-11-21T06:20:07;101538.78;;;7.46;100.00
5574;BME280;2563;52.242;7.956;2023-11-21T06:22:40;101533.66;;;7.43;100.00
5574;BME280;2563;52.242;7.956;2023-11-21T06:25:06;101543.91;;;7.48;100.00
5574;BME280;2563;52.242;7.956;2023-11-21T06:27:33;101554.16;;;7.48;100.00
5574;BME280;2563;52.242;7.956;2023-11-21T06:29:59;101558.41;;;7.44;100.00
5574;BME280;2563;52.242;7.956;2023-11-21T06:32:24;101565.25;;;7.45;100.00
5574;BME280;2563;52.242;7.956;2023-11-21T06:34:51;101566.97;;;7.45;100.00
5574;BME280;2563;52.242;7.956;2023-11-21T06:37:19;101565.25;;;7.42;100.00
5574;BME280;2563;52.242;7.956;2023-11-21T06:39:48;101566.09;;;7.43;100.00
5574;BME280;2563;52.242;7.956;2023-11-21T06:42:13;101574.66;;;7.48;100.00
5574;BME280;2563;52.242;7.956;2023-11-21T06:44:40;101585.75;;;7.49;100.00
5574;BME280;2563;52.242;7.956;2023-11-21T06:47:06;101584.00;;;7.44;100.00
5574;BME280;2563;52.242;7.956;2023-11-21T06:49:32;101595.97;;;7.42;100.00
5574;BME280;2563;52.242;7.956;2023-11-21T06:51:57;101598.56;;;7.42;100.00
5574;BME280;2563;52.242;7.956;2023-11-21T06:54:24;101613.03;;;7.42;100.00
5574;BME280;2563;52.242;7.956;2023-11-21T06:56:49;101614.75;;;7.41;100.00
5574;BME280;2563;52.242;7.956;2023-11-21T06:59:15;101616.47;;;7.44;100.00
5574;BME280;2563;52.242;7.956;2023-11-21T07:01:40;101623.31;;;7.46;100.00
5574;BME280;2563;52.242;7.956;2023-11-21T07:04:06;101637.00;;;7.49;100.00
5574;BME280;2563;52.242;7.956;2023-11-21T07:06:32;101632.72;;;7.46;100.00
5574;BME280;2563;52.242;7.956;2023-11-21T07:08:58;101631.84;;;7.45;100.00
5574;BME280;2563;52.242;7.956;2023-11-21T07:11:24;101630.13;;;7.43;100.00
5574;BME280;2563;52.242;7.956;2023-11-21T07:13:50;101632.69;;;7.41;100.00
5574;BME280;2563;52.242;7.956;2023-11-21T07:16:16;101645.47;;;7.38;100.00
5574;BME280;2563;52.242;7.956;2023-11-21T07:18:41;101642.03;;;7.36;100.00
5574;BME280;2563;52.242;7.956;2023-11-21T07:21:07;101650.59;;;7.38;100.00
5574;BME280;2563;52.242;7.956;2023-11-21T07:23:33;101642.91;;;7.38;100.00
5574;BME280;2563;52.242;7.956;2023-11-21T07:25:59;101657.44;;;7.38;100.00
5574;BME280;2563;52.242;7.956;2023-11-21T07:28:24;101654.03;;;7.40;100.00
5574;BME280;2563;52.242;7.956;2023-11-21T07:30:51;101655.72;;;7.38;100.00
5574;BME280;2563;52.242;7.956;2023-11-21T07:33:16;101659.16;;;7.40;100.00
5574;BME280;2563;52.242;7.956;2023-11-21T07:35:42;101656.63;;;7.45;100.00
5574;BME280;2563;52.242;7.956;2023-11-21T07:38:08;101659.19;;;7.45;100.00
5574;BME280;2563;52.242;7.956;2023-11-21T07:40:33;101664.28;;;7.46;100.00
5574;BME280;2563;52.242;7.956;2023-11-21T07:42:59;101668.59;;;7.48;100.00
5574;BME280;2563;52.242;7.956;2023-11-21T07:45:24;101665.16;;;7.49;100.00
5574;BME280;2563;52.242;7.956;2023-11-21T07:47:53;101665.19;;;7.50;100.00
5574;BME280;2563;52.242;7.956;2023-11-21T07:50:18;101668.59;;;7.49;100.00
5574;BME280;2563;52.242;7.956;2023-11-21T07:52:45;101677.09;;;7.46;100.00
5574;BME280;2563;52.242;7.956;2023-11-21T07:55:10;101686.53;;;7.48;100.00
5574;BME280;2563;52.242;7.956;2023-11-21T07:57:36;101691.66;;;7.51;100.00
5574;BME280;2563;52.242;7.956;2023-11-21T08:00:02;101684.84;;;7.53;100.00
5574;BME280;2563;52.242;7.956;2023-11-21T08:02:28;101694.25;;;7.52;100.00
5574;BME280;2563;52.242;7.956;2023-11-21T08:04:54;101689.97;;;7.53;100.00
5574;BME280;2563;52.242;7.956;2023-11-21T08:07:21;101696.84;;;7.57;100.00
5574;BME280;2563;52.242;7.956;2023-11-21T08:09:47;101686.59;;;7.58;100.00
5574;BME280;2563;52.242;7.956;2023-11-21T08:12:15;101700.28;;;7.62;100.00
5574;BME280;2563;52.242;7.956;2023-11-21T08:14:40;101703.72;;;7.64;100.00
5574;BME280;2563;52.242;7.956;2023-11-21T08:17:06;101705.41;;;7.62;100.00
5574;BME280;2563;52.242;7.956;2023-11-21T08:19:31;101712.28;;;7.69;100.00
5574;BME280;2563;52.242;7.956;2023-11-21T08:21:58;101714.00;;;7.69;100.00
5574;BME280;2563;52.242;7.956;2023-11-21T08:24:24;101720.00;;;7.74;100.00
5574;BME280;2563;52.242;7.956;2023-11-21T08:26:50;101731.13;;;7.76;100.00
5574;BME280;2563;52.242;7.956;2023-11-21T08:29:17;101728.56;;;7.76;100.00
5574;BME280;2563;52.242;7.956;2023-11-21T08:31:43;101737.13;;;7.76;100.00
5574;BME280;2563;52.242;7.956;2023-11-21T08:34:12;101740.47;;;7.71;100.00
5574;BME280;2563;52.242;7.956;2023-11-21T08:36:41;101747.38;;;7.76;100.00
5574;BME280;2563;52.242;7.956;2023-11-21T08:39:07;101749.94;;;7.76;100.00
5574;BME280;2563;52.242;7.956;2023-11-21T08:41:32;101752.44;;;7.73;100.00
5574;BME280;2563;52.242;7.956;2023-11-21T08:43:57;101748.19;;;7.75;100.00
5574;BME280;2563;52.242;7.956;2023-11-21T08:46:23;101752.50;;;7.76;100.00
5574;BME280;2563;52.242;7.956;2023-11-21T08:48:51;101751.63;;;7.80;100.00
5574;BME280;2563;52.242;7.956;2023-11-21T08:51:17;101755.09;;;7.87;100.00
5574;BME280;2563;52.242;7.956;2023-11-21T08:53:43;101762.00;;;7.93;100.00
5574;BME280;2563;52.242;7.956;2023-11-21T08:56:17;101759.41;;;7.89;100.00
5574;BME280;2563;52.242;7.956;2023-11-21T08:58:43;101760.25;;;7.87;100.00
5574;BME280;2563;52.242;7.956;2023-11-21T09:01:09;101756.81;;;7.86;100.00
5574;BME280;2563;52.242;7.956;2023-11-21T09:03:34;101759.41;;;7.89;100.00
5574;BME280;2563;52.242;7.956;2023-11-21T09:06:00;101767.94;;;7.90;100.00
5574;BME280;2563;52.242;7.956;2023-11-21T09:08:25;101774.81;;;7.93;100.00
5574;BME280;2563;52.242;7.956;2023-11-21T09:10:53;101788.53;;;7.98;100.00
5574;BME280;2563;52.242;7.956;2023-11-21T09:13:18;101791.91;;;7.94;100.00
5574;BME280;2563;52.242;7.956;2023-11-21T09:15:43;101794.47;;;7.97;100.00
5574;BME280;2563;52.242;7.956;2023-11-21T09:18:15;101803.91;;;7.99;100.00
5574;BME280;2563;52.242;7.956;2023-11-21T09:20:41;101803.03;;;7.99;100.00
5574;BME280;2563;52.242;7.956;2023-11-21T09:23:08;101809.88;;;7.97;100.00
5574;BME280;2563;52.242;7.956;2023-11-21T09:25:33;101809.91;;;8.00;100.00
5574;BME280;2563;52.242;7.956;2023-11-21T09:27:59;101805.63;;;8.02;100.00
5574;BME280;2563;52.242;7.956;2023-11-21T09:30:24;101803.09;;;8.08;100.00
5574;BME280;2563;52.242;7.956;2023-11-21T09:32:50;101809.09;;;8.10;100.00
5574;BME280;2563;52.242;7.956;2023-11-21T09:35:17;101816.81;;;8.13;100.00
5574;BME280;2563;52.242;7.956;2023-11-21T09:37:44;101816.78;;;8.08;100.00
5574;BME280;2563;52.242;7.956;2023-11-21T09:40:11;101817.63;;;8.09;100.00
5574;BME280;2563;52.242;7.956;2023-11-21T09:43:03;101811.69;;;8.10;100.00
5574;BME280;2563;52.242;7.956;2023-11-21T09:45:35;101819.34;;;8.07;100.00
5574;BME280;2563;52.242;7.956;2023-11-21T09:48:01;101821.94;;;8.10;100.00
5574;BME280;2563;52.242;7.956;2023-11-21T09:50:27;101827.06;;;8.10;100.00
5574;BME280;2563;52.242;7.956;2023-11-21T09:55:36;101840.72;;;8.07;100.00
5574;BME280;2563;52.242;7.956;2023-11-21T09:58:04;101832.13;;;8.04;100.00
5574;BME280;2563;52.242;7.956;2023-11-21T10:00:33;101838.94;;;7.99;100.00
5574;BME280;2563;52.242;7.956;2023-11-21T10:02:59;101859.44;;;7.99;100.00
5574;BME280;2563;52.242;7.956;2023-11-21T10:05:25;101858.59;;;7.95;100.00
5574;BME280;2563;52.242;7.956;2023-11-21T10:07:51;101862.91;;;8.04;100.00
5574;BME280;2563;52.242;7.956;2023-11-21T10:10:19;101869.72;;;8.02;100.00
5574;BME280;2563;52.242;7.956;2023-11-21T10:12:51;101876.56;;;8.00;100.00
5574;BME280;2563;52.242;7.956;2023-11-21T10:15:21;101883.47;;;8.07;100.00
5574;BME280;2563;52.242;7.956;2023-11-21T10:17:49;101873.22;;;8.13;100.00
5574;BME280;2563;52.242;7.956;2023-11-21T10:20:15;101882.59;;;8.05;100.00
5574;BME280;2563;52.242;7.956;2023-11-21T10:22:42;101886.84;;;8.06;100.00
5574;BME280;2563;52.242;7.956;2023-11-21T10:25:10;101886.94;;;8.15;100.00
5574;BME280;2563;52.242;7.956;2023-11-21T10:27:37;101886.78;;;7.97;100.00
5574;BME280;2563;52.242;7.956;2023-11-21T10:30:07;101891.09;;;7.98;100.00
5574;BME280;2563;52.242;7.956;2023-11-21T10:32:37;101890.19;;;7.96;100.00
5574;BME280;2563;52.242;7.956;2023-11-21T10:35:03;101886.75;;;7.91;100.00
5574;BME280;2563;52.242;7.956;2023-11-21T10:37:41;101885.84;;;7.87;100.00
5574;BME280;2563;52.242;7.956;2023-11-21T10:40:08;101867.78;;;7.73;100.00
5574;BME280;2563;52.242;7.956;2023-11-21T10:42:37;101875.47;;;7.73;100.00
5574;BME280;2563;52.242;7.956;2023-11-21T10:45:04;101873.81;;;7.77;100.00
5574;BME280;2563;52.242;7.956;2023-11-21T10:47:31;101877.16;;;7.70;100.00
5574;BME280;2563;52.242;7.956;2023-11-21T10:49:57;101878.03;;;7.73;100.00
5574;BME280;2563;52.242;7.956;2023-11-21T10:52:26;101876.25;;;7.66;100.00
5574;BME280;2563;52.242;7.956;2023-11-21T10:54:52;101876.31;;;7.69;100.00
5574;BME280;2563;52.242;7.956;2023-11-21T10:57:18;101873.69;;;7.66;100.00
5574;BME280;2563;52.242;7.956;2023-11-21T10:59:47;101864.28;;;7.62;100.00
5574;BME280;2563;52.242;7.956;2023-11-21T11:02:24;101860.88;;;7.63;100.00
5574;BME280;2563;52.242;7.956;2023-11-21T11:04:54;101854.84;;;7.61;100.00
5574;BME280;2563;52.242;7.956;2023-11-21T11:07:21;101858.25;;;7.57;100.00
5574;BME280;2563;52.242;7.956;2023-11-21T11:09:51;101856.50;;;7.53;100.00
5574;BME280;2563;52.242;7.956;2023-11-21T11:12:17;101853.03;;;7.49;100.00
5574;BME280;2563;52.242;7.956;2023-11-21T11:14:44;101853.84;;;7.43;100.00
5574;BME280;2563;52.242;7.956;2023-11-21T11:17:10;101840.16;;;7.41;100.00
5574;BME280;2563;52.242;7.956;2023-11-21T11:19:37;101837.56;;;7.37;100.00
5574;BME280;2563;52.242;7.956;2023-11-21T11:22:37;101814.53;;;7.38;100.00
5574;BME280;2563;52.242;7.956;2023-11-21T11:25:30;101801.75;;;7.40;100.00
5574;BME280;2563;52.242;7.956;2023-11-21T11:28:19;101811.16;;;7.42;100.00
5574;BME280;2563;52.242;7.956;2023-11-21T11:34:11;101804.22;;;7.32;100.00
5574;BME280;2563;52.242;7.956;2023-11-21T11:36:55;101802.50;;;7.31;100.00
5574;BME280;2563;52.242;7.956;2023-11-21T11:39:37;101781.13;;;7.28;100.00
5574;BME280;2563;52.242;7.956;2023-11-21T11:42:05;101768.34;;;7.32;100.00
5574;BME280;2563;52.242;7.956;2023-11-21T11:47:22;101723.13;;;7.33;100.00
5574;BME280;2563;52.242;7.956;2023-11-21T11:50:08;101719.81;;;7.46;100.00
5574;BME280;2563;52.242;7.956;2023-11-21T11:52:49;101682.97;;;7.30;100.00
5574;BME280;2563;52.242;7.956;2023-11-21T11:55:18;101659.84;;;7.19;100.00
5574;BME280;2563;52.242;7.956;2023-11-21T11:57:44;101664.13;;;7.22;100.00
5574;BME280;2563;52.242;7.956;2023-11-21T12:02:44;101615.50;;;7.23;100.00
5574;BME280;2563;52.242;7.956;2023-11-21T12:05:20;101591.59;;;7.21;100.00
5574;BME280;2563;52.242;7.956;2023-11-21T12:07:54;101582.25;;;7.28;100.00
5574;BME280;2563;52.242;7.956;2023-11-21T12:10:21;101574.59;;;7.39;100.00
5574;BME280;2563;52.242;7.956;2023-11-21T12:12:54;101548.16;;;7.41;100.00
5574;BME280;2563;52.242;7.956;2023-11-21T12:15:21;101536.22;;;7.43;100.00
5574;BME280;2563;52.242;7.956;2023-11-21T12:17:47;101506.28;;;7.32;100.00
5574;BME280;2563;52.242;7.956;2023-11-21T12:20:15;101502.88;;;7.33;100.00
5574;BME280;2563;52.242;7.956;2023-11-21T12:25:22;101493.44;;;7.30;100.00
5574;BME280;2563;52.242;7.956;2023-11-21T12:27:50;101490.81;;;7.15;100.00
5574;BME280;2563;52.242;7.956;2023-11-21T12:30:17;101488.28;;;7.18;100.00
5574;BME280;2563;52.242;7.956;2023-11-21T12:32:43;101483.13;;;7.13;100.00
5574;BME280;2563;52.242;7.956;2023-11-21T12:35:11;101472.03;;;7.10;100.00
5574;BME280;2563;52.242;7.956;2023-11-21T12:37:41;101467.75;;;7.13;100.00
5574;BME280;2563;52.242;7.956;2023-11-21T12:40:10;101467.78;;;7.15;100.00
5574;BME280;2563;52.242;7.956;2023-11-21T12:42:44;101462.72;;;7.24;100.00
5574;BME280;2563;52.242;7.956;2023-11-21T12:47:50;101451.59;;;7.25;100.00
5574;BME280;2563;52.242;7.956;2023-11-21T12:50:23;101449.09;;;7.31;100.00
5574;BME280;2563;52.242;7.956;2023-11-21T12:52:52;101424.31;;;7.32;100.00
5574;BME280;2563;52.242;7.956;2023-11-21T12:55:19;101418.34;;;7.34;100.00
5574;BME280;2563;52.242;7.956;2023-11-21T12:57:52;101412.41;;;7.43;100.00
5574;BME280;2563;52.242;7.956;2023-11-21T13:00:20;101411.59;;;7.55;100.00
5574;BME280;2563;52.242;7.956;2023-11-21T13:02:56;101404.75;;;7.63;100.00
5574;BME280;2563;52.242;7.956;2023-11-21T13:05:37;101410.75;;;7.54;100.00
5574;BME280;2563;52.242;7.956;2023-11-21T13:08:08;101412.41;;;7.49;100.00
5574;BME280;2563;52.242;7.956;2023-11-21T13:10:41;101406.44;;;7.49;100.00
5574;BME280;2563;52.242;7.956;2023-11-21T13:13:10;101404.75;;;7.48;100.00
5574;BME280;2563;52.242;7.956;2023-11-21T13:15:47;101403.88;;;7.52;100.00
5574;BME280;2563;52.242;7.956;2023-11-21T13:18:13;101408.16;;;7.50;100.00
5574;BME280;2563;52.242;7.956;2023-11-21T13:20:40;101402.16;;;7.43;100.00
5574;BME280;2563;52.242;7.956;2023-11-21T13:23:10;101397.03;;;7.38;100.00
5574;BME280;2563;52.242;7.956;2023-11-21T13:25:41;101399.59;;;7.40;100.00
5574;BME280;2563;52.242;7.956;2023-11-21T13:28:08;101387.63;;;7.34;100.00